sensor_id;sensor_type;location;lat;lon;timestamp;pressure;altitude;pressure_sealevel;temperature;humidity
57102;BME280;42982;54.558;18.508;2022-08-06T00:01:13;100901.19;;;21.24;nan
57102;BME280;42982;54.558;18.508;2022-08-06T00:02:20;100889.47;;;21.24;nan
57102;BME280;42982;54.558;18.508;2022-08-06T00:03:24;100888.78;;;21.27;nan
57102;BME280;42982;54.558;18.508;2022-08-06T00:04:26;100886.84;;;21.15;nan
57102;BME280;42982;54.558;18.508;2022-08-06T00:05:29;100886.72;;;21.12;nan
57102;BME280;42982;54.558;18.508;2022-08-06T00:06:33;100886.72;;;21.12;nan
57102;BME280;42982;54.558;18.508;2022-08-06T00:07:35;100898.47;;;21.12;nan
57102;BME280;42982;54.558;18.508;2022-08-06T00:08:38;100898.81;;;21.11;nan
57102;BME280;42982;54.558;18.508;2022-08-06T00:09:39;100903.94;;;21.12;nan
57102;BME280;42982;54.558;18.508;2022-08-06T00:10:42;100903.50;;;21.10;nan
57102;BME280;42982;54.558;18.508;2022-08-06T00:11:47;100906.66;;;21.12;nan
57102;BME280;42982;54.558;18.508;2022-08-06T00:12:50;100905.44;;;21.10;nan
57102;BME280;42982;54.558;18.508;2022-08-06T00:13:52;100902.91;;;21.04;nan
57102;BME280;42982;54.558;18.508;2022-08-06T00:14:54;100905.31;;;21.06;nan
57102;BME280;42982;54.558;18.508;2022-08-06T00:16:00;100906.91;;;21.07;nan
57102;BME280;42982;54.558;18.508;2022-08-06T00:17:02;100889.59;;;21.03;nan
57102;BME280;42982;54.558;18.508;2022-08-06T00:18:04;100890.13;;;20.96;nan
57102;BME280;42982;54.558;18.508;2022-08-06T00:19:06;100896.31;;;20.93;nan
57102;BME280;42982;54.558;18.508;2022-08-06T00:20:13;100905.19;;;21.02;nan
57102;BME280;42982;54.558;18.508;2022-08-06T00:21:19;100911.31;;;20.99;nan
57102;BME280;42982;54.558;18.508;2022-08-06T00:22:26;100902.69;;;20.97;nan
57102;BME280;42982;54.558;18.508;2022-08-06T00:23:28;100909.63;;;20.95;nan
57102;BME280;42982;54.558;18.508;2022-08-06T00:24:30;100912.94;;;21.00;nan
57102;BME280;42982;54.558;18.508;2022-08-06T00:25:33;100916.94;;;21.03;nan
57102;BME280;42982;54.558;18.508;2022-08-06T00:26:35;100919.44;;;21.08;nan
57102;BME280;42982;54.558;18.508;2022-08-06T00:27:41;100924.09;;;21.08;nan
57102;BME280;42982;54.558;18.508;2022-08-06T00:28:46;100924.78;;;21.04;nan
57102;BME280;42982;54.558;18.508;2022-08-06T00:29:48;100926.81;;;20.95;nan
57102;BME280;42982;54.558;18.508;2022-08-06T00:31:00;100934.59;;;20.93;nan
57102;BME280;42982;54.558;18.508;2022-08-06T00:32:06;100940.06;;;20.93;nan
57102;BME280;42982;54.558;18.508;2022-08-06T00:33:10;100927.94;;;20.82;nan
57102;BME280;42982;54.558;18.508;2022-08-06T00:34:13;100926.22;;;20.77;nan
57102;BME280;42982;54.558;18.508;2022-08-06T00:35:16;100920.63;;;20.74;nan
57102;BME280;42982;54.558;18.508;2022-08-06T00:36:19;100928.50;;;20.75;nan
57102;BME280;42982;54.558;18.508;2022-08-06T00:37:22;100923.72;;;20.72;nan
57102;BME280;42982;54.558;18.508;2022-08-06T00:38:24;100915.59;;;20.64;nan
57102;BME280;42982;54.558;18.508;2022-08-06T00:47:43;100940.00;;;20.27;nan
57102;BME280;42982;54.558;18.508;2022-08-06T00:48:46;100941.94;;;20.26;nan
57102;BME280;42982;54.558;18.508;2022-08-06T00:50:52;100937.50;;;20.22;nan
57102;BME280;42982;54.558;18.508;2022-08-06T00:51:55;100930.84;;;20.10;nan
57102;BME280;42982;54.558;18.508;2022-08-06T00:52:57;100947.22;;;20.10;nan
57102;BME280;42982;54.558;18.508;2022-08-06T00:54:00;100948.16;;;20.14;nan
57102;BME280;42982;54.558;18.508;2022-08-06T00:55:06;100955.22;;;20.16;nan
57102;BME280;42982;54.558;18.508;2022-08-06T00:56:09;100962.53;;;20.24;nan
57102;BME280;42982;54.558;18.508;2022-08-06T00:57:14;100971.06;;;20.22;nan
57102;BME280;42982;54.558;18.508;2022-08-06T00:58:18;100967.97;;;20.24;nan
57102;BME280;42982;54.558;18.508;2022-08-06T00:59:32;100966.22;;;20.28;nan
57102;BME280;42982;54.558;18.508;2022-08-06T01:00:37;100957.34;;;20.31;nan
57102;BME280;42982;54.558;18.508;2022-08-06T01:01:41;100953.22;;;20.25;nan
57102;BME280;42982;54.558;18.508;2022-08-06T01:02:46;100955.34;;;20.19;nan
57102;BME280;42982;54.558;18.508;2022-08-06T01:03:50;100959.75;;;20.11;nan
57102;BME280;42982;54.558;18.508;2022-08-06T01:04:52;100969.34;;;20.18;nan
57102;BME280;42982;54.558;18.508;2022-08-06T01:05:55;100957.53;;;20.26;nan
57102;BME280;42982;54.558;18.508;2022-08-06T01:06:56;100963.47;;;20.28;nan
57102;BME280;42982;54.558;18.508;2022-08-06T01:08:00;100957.06;;;20.24;nan
57102;BME280;42982;54.558;18.508;2022-08-06T01:09:06;100950.81;;;20.23;nan
57102;BME280;42982;54.558;18.508;2022-08-06T01:10:13;100955.75;;;20.09;nan
57102;BME280;42982;54.558;18.508;2022-08-06T01:11:16;100955.47;;;20.02;nan
57102;BME280;42982;54.558;18.508;2022-08-06T01:12:21;100955.63;;;20.05;nan
57102;BME280;42982;54.558;18.508;2022-08-06T01:13:24;100955.94;;;20.04;nan
57102;BME280;42982;54.558;18.508;2022-08-06T01:14:27;100956.97;;;19.99;nan
57102;BME280;42982;54.558;18.508;2022-08-06T01:15:33;100964.66;;;19.97;nan
57102;BME280;42982;54.558;18.508;2022-08-06T01:16:44;100961.47;;;19.95;nan
57102;BME280;42982;54.558;18.508;2022-08-06T01:23:40;100953.75;;;20.18;nan
57102;BME280;42982;54.558;18.508;2022-08-06T01:27:46;100935.88;;;20.21;nan
57102;BME280;42982;54.558;18.508;2022-08-06T01:28:57;100936.72;;;20.21;nan
57102;BME280;42982;54.558;18.508;2022-08-06T01:30:08;100933.13;;;20.08;nan
57102;BME280;42982;54.558;18.508;2022-08-06T01:31:16;100949.22;;;20.01;nan
57102;BME280;42982;54.558;18.508;2022-08-06T01:32:28;100950.00;;;20.02;nan
57102;BME280;42982;54.558;18.508;2022-08-06T01:33:35;100952.28;;;20.00;nan
57102;BME280;42982;54.558;18.508;2022-08-06T01:34:40;100955.22;;;19.95;nan
57102;BME280;42982;54.558;18.508;2022-08-06T01:35:48;100953.44;;;19.99;nan
57102;BME280;42982;54.558;18.508;2022-08-06T01:36:59;100955.34;;;19.98;nan
57102;BME280;42982;54.558;18.508;2022-08-06T01:38:13;100968.78;;;20.03;nan
57102;BME280;42982;54.558;18.508;2022-08-06T01:39:21;100961.09;;;20.05;nan
57102;BME280;42982;54.558;18.508;2022-08-06T01:40:31;100963.47;;;20.07;nan
57102;BME280;42982;54.558;18.508;2022-08-06T01:41:41;100965.22;;;20.11;nan
57102;BME280;42982;54.558;18.508;2022-08-06T01:42:45;100966.81;;;20.12;nan
57102;BME280;42982;54.558;18.508;2022-08-06T01:43:54;100964.22;;;20.16;nan
57102;BME280;42982;54.558;18.508;2022-08-06T01:44:59;100966.13;;;20.16;nan
57102;BME280;42982;54.558;18.508;2022-08-06T01:46:08;100968.41;;;20.13;nan
57102;BME280;42982;54.558;18.508;2022-08-06T01:47:12;100965.22;;;20.11;nan
57102;BME280;42982;54.558;18.508;2022-08-06T01:48:21;100964.94;;;20.04;nan
57102;BME280;42982;54.558;18.508;2022-08-06T01:49:25;100967.22;;;20.02;nan
57102;BME280;42982;54.558;18.508;2022-08-06T01:50:36;100977.00;;;20.03;nan
57102;BME280;42982;54.558;18.508;2022-08-06T01:51:39;100984.50;;;20.06;nan
57102;BME280;42982;54.558;18.508;2022-08-06T01:52:42;100982.09;;;20.05;nan
57102;BME280;42982;54.558;18.508;2022-08-06T01:53:45;100969.47;;;20.00;nan
57102;BME280;42982;54.558;18.508;2022-08-06T01:54:50;100980.38;;;20.00;nan
57102;BME280;42982;54.558;18.508;2022-08-06T01:55:54;100981.19;;;20.01;nan
57102;BME280;42982;54.558;18.508;2022-08-06T01:57:01;100985.84;;;20.00;nan
57102;BME280;42982;54.558;18.508;2022-08-06T01:58:05;101005.44;;;20.02;nan
57102;BME280;42982;54.558;18.508;2022-08-06T01:59:08;101000.53;;;20.08;nan
57102;BME280;42982;54.558;18.508;2022-08-06T02:00:16;101004.41;;;20.07;nan
57102;BME280;42982;54.558;18.508;2022-08-06T02:01:19;100988.38;;;20.05;nan
57102;BME280;42982;54.558;18.508;2022-08-06T02:02:24;100998.34;;;20.01;nan
57102;BME280;42982;54.558;18.508;2022-08-06T02:03:32;101003.63;;;20.06;nan
57102;BME280;42982;54.558;18.508;2022-08-06T02:04:38;100997.69;;;20.04;nan
57102;BME280;42982;54.558;18.508;2022-08-06T02:05:43;101010.22;;;20.05;nan
57102;BME280;42982;54.558;18.508;2022-08-06T02:06:47;101010.34;;;20.09;nan
57102;BME280;42982;54.558;18.508;2022-08-06T02:07:50;101004.75;;;20.05;nan
57102;BME280;42982;54.558;18.508;2022-08-06T02:08:55;100996.56;;;20.05;nan
57102;BME280;42982;54.558;18.508;2022-08-06T02:09:59;101003.28;;;20.08;nan
57102;BME280;42982;54.558;18.508;2022-08-06T02:11:09;101001.94;;;19.93;nan
57102;BME280;42982;54.558;18.508;2022-08-06T02:12:15;101009.78;;;19.95;nan
57102;BME280;42982;54.558;18.508;2022-08-06T02:13:20;101005.59;;;19.97;nan
57102;BME280;42982;54.558;18.508;2022-08-06T02:14:24;101002.88;;;19.97;nan
57102;BME280;42982;54.558;18.508;2022-08-06T02:15:28;100991.69;;;19.90;nan
57102;BME280;42982;54.558;18.508;2022-08-06T02:16:39;100991.25;;;19.79;nan
57102;BME280;42982;54.558;18.508;2022-08-06T02:17:47;100996.41;;;19.81;nan
57102;BME280;42982;54.558;18.508;2022-08-06T02:18:51;100998.69;;;19.70;nan
57102;BME280;42982;54.558;18.508;2022-08-06T02:19:54;101003.34;;;19.70;nan
57102;BME280;42982;54.558;18.508;2022-08-06T02:20:58;101004.00;;;19.66;nan
57102;BME280;42982;54.558;18.508;2022-08-06T02:22:05;100996.31;;;19.68;nan
57102;BME280;42982;54.558;18.508;2022-08-06T02:23:09;101010.44;;;19.71;nan
57102;BME280;42982;54.558;18.508;2022-08-06T02:24:15;101012.50;;;19.74;nan
57102;BME280;42982;54.558;18.508;2022-08-06T02:25:20;101014.25;;;19.70;nan
57102;BME280;42982;54.558;18.508;2022-08-06T02:26:30;101024.53;;;19.73;nan
57102;BME280;42982;54.558;18.508;2022-08-06T02:27:33;101024.38;;;19.69;nan
57102;BME280;42982;54.558;18.508;2022-08-06T02:28:37;101031.59;;;19.74;nan
57102;BME280;42982;54.558;18.508;2022-08-06T02:30:44;101016.78;;;19.83;nan
57102;BME280;42982;54.558;18.508;2022-08-06T02:31:48;101020.44;;;19.87;nan
57102;BME280;42982;54.558;18.508;2022-08-06T02:32:53;101023.47;;;19.86;nan
57102;BME280;42982;54.558;18.508;2022-08-06T02:33:55;101023.47;;;19.86;nan
57102;BME280;42982;54.558;18.508;2022-08-06T02:34:58;101032.81;;;19.85;nan
57102;BME280;42982;54.558;18.508;2022-08-06T02:36:02;101035.34;;;19.90;nan
57102;BME280;42982;54.558;18.508;2022-08-06T02:40:57;101042.28;;;19.87;nan
57102;BME280;42982;54.558;18.508;2022-08-06T02:42:06;101025.88;;;19.87;nan
57102;BME280;42982;54.558;18.508;2022-08-06T02:43:18;101035.22;;;19.86;nan
57102;BME280;42982;54.558;18.508;2022-08-06T02:44:40;101030.41;;;19.83;nan
57102;BME280;42982;54.558;18.508;2022-08-06T02:45:48;101027.69;;;19.83;nan
57102;BME280;42982;54.558;18.508;2022-08-06T02:47:02;101030.56;;;19.87;nan
57102;BME280;42982;54.558;18.508;2022-08-06T02:48:22;101032.81;;;19.85;nan
57102;BME280;42982;54.558;18.508;2022-08-06T02:49:30;101028.63;;;19.87;nan
57102;BME280;42982;54.558;18.508;2022-08-06T02:50:37;101029.25;;;19.93;nan
57102;BME280;42982;54.558;18.508;2022-08-06T02:51:44;101026.97;;;19.95;nan
57102;BME280;42982;54.558;18.508;2022-08-06T02:52:52;101023.78;;;19.93;nan
57102;BME280;42982;54.558;18.508;2022-08-06T02:54:10;101011.25;;;19.92;nan
57102;BME280;42982;54.558;18.508;2022-08-06T02:55:19;101002.75;;;19.94;nan
57102;BME280;42982;54.558;18.508;2022-08-06T02:56:41;101014.44;;;19.94;nan
57102;BME280;42982;54.558;18.508;2022-08-06T02:57:50;101024.56;;;19.94;nan
57102;BME280;42982;54.558;18.508;2022-08-06T02:58:53;101031.50;;;19.91;nan
57102;BME280;42982;54.558;18.508;2022-08-06T03:00:02;101034.09;;;19.87;nan
57102;BME280;42982;54.558;18.508;2022-08-06T03:01:08;101039.19;;;19.89;nan
57102;BME280;42982;54.558;18.508;2022-08-06T03:02:14;101036.00;;;19.87;nan
57102;BME280;42982;54.558;18.508;2022-08-06T03:03:17;101036.81;;;19.87;nan
57102;BME280;42982;54.558;18.508;2022-08-06T03:04:23;101045.97;;;19.83;nan
57102;BME280;42982;54.558;18.508;2022-08-06T03:05:29;101028.00;;;19.82;nan
57102;BME280;42982;54.558;18.508;2022-08-06T03:06:33;101048.25;;;19.81;nan
57102;BME280;42982;54.558;18.508;2022-08-06T03:07:38;101028.22;;;19.77;nan
57102;BME280;42982;54.558;18.508;2022-08-06T03:08:42;101036.72;;;19.75;nan
57102;BME280;42982;54.558;18.508;2022-08-06T03:09:47;101041.69;;;19.73;nan
57102;BME280;42982;54.558;18.508;2022-08-06T03:10:53;101032.25;;;19.71;nan
57102;BME280;42982;54.558;18.508;2022-08-06T03:11:56;101025.19;;;19.70;nan
57102;BME280;42982;54.558;18.508;2022-08-06T03:13:03;101028.56;;;19.66;nan
57102;BME280;42982;54.558;18.508;2022-08-06T03:14:09;101029.03;;;19.68;nan
57102;BME280;42982;54.558;18.508;2022-08-06T03:15:18;101025.53;;;19.59;nan
57102;BME280;42982;54.558;18.508;2022-08-06T03:16:22;101034.19;;;19.61;nan
57102;BME280;42982;54.558;18.508;2022-08-06T03:17:26;101034.84;;;19.58;nan
57102;BME280;42982;54.558;18.508;2022-08-06T03:18:30;101040.28;;;19.58;nan
57102;BME280;42982;54.558;18.508;2022-08-06T03:19:34;101045.91;;;19.62;nan
57102;BME280;42982;54.558;18.508;2022-08-06T03:20:39;101049.59;;;19.57;nan
57102;BME280;42982;54.558;18.508;2022-08-06T03:21:44;101048.78;;;19.57;nan
57102;BME280;42982;54.558;18.508;2022-08-06T03:22:50;101034.84;;;19.58;nan
57102;BME280;42982;54.558;18.508;2022-08-06T03:23:55;101034.19;;;19.61;nan
57102;BME280;42982;54.558;18.508;2022-08-06T03:25:01;101044.94;;;19.66;nan
57102;BME280;42982;54.558;18.508;2022-08-06T03:26:04;101046.06;;;19.65;nan
57102;BME280;42982;54.558;18.508;2022-08-06T03:27:12;101046.06;;;19.65;nan
57102;BME280;42982;54.558;18.508;2022-08-06T03:28:16;101052.16;;;19.62;nan
57102;BME280;42982;54.558;18.508;2022-08-06T03:29:18;101057.78;;;19.57;nan
57102;BME280;42982;54.558;18.508;2022-08-06T03:30:24;101055.22;;;19.61;nan
57102;BME280;42982;54.558;18.508;2022-08-06T03:31:27;101059.19;;;19.63;nan
57102;BME280;42982;54.558;18.508;2022-08-06T03:32:32;101052.16;;;19.62;nan
57102;BME280;42982;54.558;18.508;2022-08-06T03:33:36;101053.72;;;19.63;nan
57102;BME280;42982;54.558;18.508;2022-08-06T03:34:38;101064.03;;;19.66;nan
57102;BME280;42982;54.558;18.508;2022-08-06T03:35:41;101061.78;;;19.68;nan
57102;BME280;42982;54.558;18.508;2022-08-06T03:36:45;101069.97;;;19.68;nan
57102;BME280;42982;54.558;18.508;2022-08-06T03:37:48;101067.38;;;19.63;nan
57102;BME280;42982;54.558;18.508;2022-08-06T03:38:58;101066.91;;;19.61;nan
57102;BME280;42982;54.558;18.508;2022-08-06T03:40:03;101055.53;;;19.59;nan
57102;BME280;42982;54.558;18.508;2022-08-06T03:41:06;101056.84;;;19.53;nan
57102;BME280;42982;54.558;18.508;2022-08-06T03:42:10;101059.69;;;19.57;nan
57102;BME280;42982;54.558;18.508;2022-08-06T03:43:12;101059.41;;;19.50;nan
57102;BME280;42982;54.558;18.508;2022-08-06T03:44:15;101069.84;;;19.48;nan
57102;BME280;42982;54.558;18.508;2022-08-06T03:45:18;101071.28;;;19.45;nan
57102;BME280;42982;54.558;18.508;2022-08-06T03:46:30;101071.78;;;19.47;nan
57102;BME280;42982;54.558;18.508;2022-08-06T03:47:39;101065.19;;;19.48;nan
57102;BME280;42982;54.558;18.508;2022-08-06T03:48:45;101074.50;;;19.47;nan
57102;BME280;42982;54.558;18.508;2022-08-06T03:50:12;101073.69;;;19.47;nan
57102;BME280;42982;54.558;18.508;2022-08-06T03:51:20;101071.97;;;19.42;nan
57102;BME280;42982;54.558;18.508;2022-08-06T03:52:25;101081.25;;;19.41;nan
57102;BME280;42982;54.558;18.508;2022-08-06T03:53:28;101078.53;;;19.41;nan
57102;BME280;42982;54.558;18.508;2022-08-06T03:54:40;101076.13;;;19.39;nan
57102;BME280;42982;54.558;18.508;2022-08-06T03:55:47;101064.75;;;19.37;nan
57102;BME280;42982;54.558;18.508;2022-08-06T03:56:54;101077.59;;;19.37;nan
57102;BME280;42982;54.558;18.508;2022-08-06T03:58:00;101081.59;;;19.39;nan
57102;BME280;42982;54.558;18.508;2022-08-06T03:59:03;101084.47;;;19.43;nan
57102;BME280;42982;54.558;18.508;2022-08-06T04:00:10;101076.75;;;19.45;nan
57102;BME280;42982;54.558;18.508;2022-08-06T04:01:21;101075.16;;;19.44;nan
57102;BME280;42982;54.558;18.508;2022-08-06T04:02:27;101079.47;;;19.45;nan
57102;BME280;42982;54.558;18.508;2022-08-06T04:03:32;101088.94;;;19.48;nan
57102;BME280;42982;54.558;18.508;2022-08-06T04:04:37;101091.00;;;19.51;nan
57102;BME280;42982;54.558;18.508;2022-08-06T04:05:41;101091.00;;;19.51;nan
57102;BME280;42982;54.558;18.508;2022-08-06T04:06:44;101083.63;;;19.51;nan
57102;BME280;42982;54.558;18.508;2022-08-06T04:07:57;101094.66;;;19.63;nan
57102;BME280;42982;54.558;18.508;2022-08-06T04:08:59;101095.00;;;19.62;nan
57102;BME280;42982;54.558;18.508;2022-08-06T04:10:02;101098.03;;;19.60;nan
57102;BME280;42982;54.558;18.508;2022-08-06T04:11:05;101105.75;;;19.58;nan
57102;BME280;42982;54.558;18.508;2022-08-06T04:12:09;101108.00;;;19.56;nan
57102;BME280;42982;54.558;18.508;2022-08-06T04:13:14;101110.72;;;19.56;nan
57102;BME280;42982;54.558;18.508;2022-08-06T04:14:16;101117.31;;;19.55;nan
57102;BME280;42982;54.558;18.508;2022-08-06T04:15:22;101121.63;;;19.56;nan
57102;BME280;42982;54.558;18.508;2022-08-06T04:16:25;101117.31;;;19.55;nan
57102;BME280;42982;54.558;18.508;2022-08-06T04:17:35;101113.47;;;19.56;nan
57102;BME280;42982;54.558;18.508;2022-08-06T04:18:38;101110.59;;;19.53;nan
57102;BME280;42982;54.558;18.508;2022-08-06T04:19:49;101113.31;;;19.53;nan
57102;BME280;42982;54.558;18.508;2022-08-06T04:20:54;101110.25;;;19.54;nan
57102;BME280;42982;54.558;18.508;2022-08-06T04:21:56;101104.00;;;19.54;nan
57102;BME280;42982;54.558;18.508;2022-08-06T04:23:00;101109.59;;;19.66;nan
57102;BME280;42982;54.558;18.508;2022-08-06T04:24:04;101104.91;;;19.75;nan
57102;BME280;42982;54.558;18.508;2022-08-06T04:25:06;101114.66;;;19.85;nan
57102;BME280;42982;54.558;18.508;2022-08-06T04:26:13;101118.16;;;19.94;nan
57102;BME280;42982;54.558;18.508;2022-08-06T04:27:19;101110.72;;;20.03;nan
57102;BME280;42982;54.558;18.508;2022-08-06T04:28:24;101109.41;;;20.09;nan
57102;BME280;42982;54.558;18.508;2022-08-06T04:29:28;101115.06;;;20.04;nan
57102;BME280;42982;54.558;18.508;2022-08-06T04:30:36;101117.84;;;19.96;nan
57102;BME280;42982;54.558;18.508;2022-08-06T04:31:39;101129.38;;;20.01;nan
57102;BME280;42982;54.558;18.508;2022-08-06T04:32:45;101131.75;;;20.11;nan
57102;BME280;42982;54.558;18.508;2022-08-06T04:33:51;101133.44;;;20.25;nan
57102;BME280;42982;54.558;18.508;2022-08-06T04:34:57;101126.78;;;20.34;nan
57102;BME280;42982;54.558;18.508;2022-08-06T04:36:01;101140.53;;;20.47;nan
57102;BME280;42982;54.558;18.508;2022-08-06T04:37:06;101138.91;;;20.54;nan
57102;BME280;42982;54.558;18.508;2022-08-06T04:38:08;101139.81;;;20.58;nan
57102;BME280;42982;54.558;18.508;2022-08-06T04:39:15;101145.09;;;20.64;nan
57102;BME280;42982;54.558;18.508;2022-08-06T04:40:18;101139.91;;;20.71;nan
57102;BME280;42982;54.558;18.508;2022-08-06T04:41:21;101140.38;;;20.73;nan
57102;BME280;42982;54.558;18.508;2022-08-06T04:42:24;101146.91;;;20.80;nan
57102;BME280;42982;54.558;18.508;2022-08-06T04:43:29;101150.25;;;20.86;nan
57102;BME280;42982;54.558;18.508;2022-08-06T04:44:31;101145.38;;;20.92;nan
57102;BME280;42982;54.558;18.508;2022-08-06T04:45:34;101147.63;;;20.90;nan
57102;BME280;42982;54.558;18.508;2022-08-06T04:46:39;101150.84;;;20.92;nan
57102;BME280;42982;54.558;18.508;2022-08-06T04:47:43;101145.25;;;20.88;nan
57102;BME280;42982;54.558;18.508;2022-08-06T04:48:48;101152.22;;;20.77;nan
57102;BME280;42982;54.558;18.508;2022-08-06T04:49:53;101150.16;;;20.74;nan
57102;BME280;42982;54.558;18.508;2022-08-06T04:50:55;101144.84;;;20.77;nan
57102;BME280;42982;54.558;18.508;2022-08-06T04:51:57;101148.28;;;20.87;nan
57102;BME280;42982;54.558;18.508;2022-08-06T04:53:13;101141.97;;;20.95;nan
57102;BME280;42982;54.558;18.508;2022-08-06T04:54:16;101148.72;;;20.97;nan
57102;BME280;42982;54.558;18.508;2022-08-06T04:55:19;101142.81;;;21.08;nan
57102;BME280;42982;54.558;18.508;2022-08-06T04:56:22;101145.50;;;21.16;nan
57102;BME280;42982;54.558;18.508;2022-08-06T04:57:25;101153.63;;;21.25;nan
57102;BME280;42982;54.558;18.508;2022-08-06T04:58:29;101154.53;;;21.29;nan
57102;BME280;42982;54.558;18.508;2022-08-06T04:59:33;101149.38;;;21.27;nan
57102;BME280;42982;54.558;18.508;2022-08-06T05:00:41;101156.19;;;21.21;nan
57102;BME280;42982;54.558;18.508;2022-08-06T05:01:44;101159.75;;;21.22;nan
57102;BME280;42982;54.558;18.508;2022-08-06T05:02:46;101157.72;;;21.31;nan
57102;BME280;42982;54.558;18.508;2022-08-06T05:03:48;101161.59;;;21.30;nan
57102;BME280;42982;54.558;18.508;2022-08-06T05:04:50;101163.50;;;21.38;nan
57102;BME280;42982;54.558;18.508;2022-08-06T05:08:20;101167.19;;;21.55;nan
57102;BME280;42982;54.558;18.508;2022-08-06T05:09:25;101164.38;;;21.63;nan
57102;BME280;42982;54.558;18.508;2022-08-06T05:10:51;101173.59;;;21.71;nan
57102;BME280;42982;54.558;18.508;2022-08-06T05:12:06;101169.97;;;21.79;nan
57102;BME280;42982;54.558;18.508;2022-08-06T05:13:13;101174.09;;;21.85;nan
57102;BME280;42982;54.558;18.508;2022-08-06T05:14:32;101172.28;;;21.89;nan
57102;BME280;42982;54.558;18.508;2022-08-06T05:15:43;101185.59;;;21.91;nan
57102;BME280;42982;54.558;18.508;2022-08-06T05:16:50;101178.78;;;21.97;nan
57102;BME280;42982;54.558;18.508;2022-08-06T05:17:58;101182.09;;;22.03;nan
57102;BME280;42982;54.558;18.508;2022-08-06T05:19:02;101175.94;;;22.06;nan
57102;BME280;42982;54.558;18.508;2022-08-06T05:20:18;101177.53;;;22.07;nan
57102;BME280;42982;54.558;18.508;2022-08-06T05:21:27;101181.41;;;22.06;nan
57102;BME280;42982;54.558;18.508;2022-08-06T05:22:32;101188.72;;;22.02;nan
57102;BME280;42982;54.558;18.508;2022-08-06T05:23:38;101185.75;;;21.94;nan
57102;BME280;42982;54.558;18.508;2022-08-06T05:24:45;101189.84;;;21.88;nan
57102;BME280;42982;54.558;18.508;2022-08-06T05:25:52;101185.63;;;21.79;nan
57102;BME280;42982;54.558;18.508;2022-08-06T05:26:56;101200.09;;;21.79;nan
57102;BME280;42982;54.558;18.508;2022-08-06T05:28:01;101194.34;;;21.72;nan
57102;BME280;42982;54.558;18.508;2022-08-06T05:29:02;101191.06;;;21.66;nan
57102;BME280;42982;54.558;18.508;2022-08-06T05:30:05;101188.28;;;21.54;nan
57102;BME280;42982;54.558;18.508;2022-08-06T05:31:07;101179.22;;;21.41;nan
57102;BME280;42982;54.558;18.508;2022-08-06T05:32:09;101189.44;;;21.32;nan
57102;BME280;42982;54.558;18.508;2022-08-06T05:33:33;101190.53;;;21.31;nan
57102;BME280;42982;54.558;18.508;2022-08-06T05:34:34;101198.75;;;21.31;nan
57102;BME280;42982;54.558;18.508;2022-08-06T05:35:36;101201.47;;;21.31;nan
57102;BME280;42982;54.558;18.508;2022-08-06T05:36:38;101198.31;;;21.29;nan
57102;BME280;42982;54.558;18.508;2022-08-06T05:37:45;101195.09;;;21.27;nan
57102;BME280;42982;54.558;18.508;2022-08-06T05:38:53;101194.28;;;21.26;nan
57102;BME280;42982;54.558;18.508;2022-08-06T05:39:56;101202.56;;;21.18;nan
57102;BME280;42982;54.558;18.508;2022-08-06T05:41:01;101206.19;;;21.10;nan
57102;BME280;42982;54.558;18.508;2022-08-06T05:42:07;101207.59;;;20.95;nan
57102;BME280;42982;54.558;18.508;2022-08-06T05:43:11;101200.19;;;20.95;nan
57102;BME280;42982;54.558;18.508;2022-08-06T05:44:15;101206.19;;;20.89;nan
57102;BME280;42982;54.558;18.508;2022-08-06T05:45:25;101207.19;;;20.84;nan
57102;BME280;42982;54.558;18.508;2022-08-06T05:46:36;101205.38;;;20.88;nan
57102;BME280;42982;54.558;18.508;2022-08-06T05:47:45;101199.13;;;20.88;nan
57102;BME280;42982;54.558;18.508;2022-08-06T05:50:11;101208.66;;;20.81;nan
57102;BME280;42982;54.558;18.508;2022-08-06T05:51:24;101214.44;;;20.80;nan
57102;BME280;42982;54.558;18.508;2022-08-06T05:53:52;101217.38;;;20.75;nan
57102;BME280;42982;54.558;18.508;2022-08-06T05:55:04;101210.91;;;20.79;nan
57102;BME280;42982;54.558;18.508;2022-08-06T05:56:21;101211.03;;;20.83;nan
57102;BME280;42982;54.558;18.508;2022-08-06T05:57:32;101220.19;;;20.87;nan
57102;BME280;42982;54.558;18.508;2022-08-06T05:59:01;101215.66;;;20.91;nan
57102;BME280;42982;54.558;18.508;2022-08-06T06:00:08;101220.31;;;20.91;nan
57102;BME280;42982;54.558;18.508;2022-08-06T06:01:13;101226.09;;;20.89;nan
57102;BME280;42982;54.558;18.508;2022-08-06T06:02:15;101221.78;;;20.88;nan
57102;BME280;42982;54.558;18.508;2022-08-06T06:03:18;101224.50;;;20.88;nan
57102;BME280;42982;54.558;18.508;2022-08-06T06:04:27;101222.91;;;20.87;nan
57102;BME280;42982;54.558;18.508;2022-08-06T06:05:39;101224.69;;;20.83;nan
57102;BME280;42982;54.558;18.508;2022-08-06T06:06:44;101220.84;;;20.84;nan
57102;BME280;42982;54.558;18.508;2022-08-06T06:07:49;101220.84;;;20.84;nan
57102;BME280;42982;54.558;18.508;2022-08-06T06:08:52;101215.38;;;20.84;nan
57102;BME280;42982;54.558;18.508;2022-08-06T06:09:56;101220.84;;;20.84;nan
57102;BME280;42982;54.558;18.508;2022-08-06T06:11:04;101218.44;;;20.82;nan
57102;BME280;42982;54.558;18.508;2022-08-06T06:12:09;101219.88;;;20.80;nan
57102;BME280;42982;54.558;18.508;2022-08-06T06:13:12;101220.69;;;20.80;nan
57102;BME280;42982;54.558;18.508;2022-08-06T06:14:37;101222.75;;;20.83;nan
57102;BME280;42982;54.558;18.508;2022-08-06T06:15:45;101223.09;;;20.82;nan
57102;BME280;42982;54.558;18.508;2022-08-06T06:17:30;101219.53;;;20.90;nan
57102;BME280;42982;54.558;18.508;2022-08-06T06:18:49;101225.50;;;20.83;nan